地図

経路データ

SID SEASON NUMBER BASIN SUBBASIN NAME ISO_TIME NATURE LAT LON WMO_WIND WMO_PRES WMO_AGENCY TRACK_TYPE DIST2LAND LANDFALL IFLAG USA_AGENCY USA_ATCF_ID USA_LAT USA_LON USA_RECORD USA_STATUS USA_WIND USA_PRES USA_SSHS USA_R34_NE USA_R34_SE USA_R34_SW USA_R34_NW USA_R50_NE USA_R50_SE USA_R50_SW USA_R50_NW USA_R64_NE USA_R64_SE USA_R64_SW USA_R64_NW USA_POCI USA_ROCI USA_RMW USA_EYE TOKYO_LAT TOKYO_LON TOKYO_GRADE TOKYO_WIND TOKYO_PRES TOKYO_R50_DIR TOKYO_R50_LONG TOKYO_R50_SHORT TOKYO_R30_DIR TOKYO_R30_LONG TOKYO_R30_SHORT TOKYO_LAND CMA_LAT CMA_LON CMA_CAT CMA_WIND CMA_PRES HKO_LAT HKO_LON HKO_CAT HKO_WIND HKO_PRES NEWDELHI_LAT NEWDELHI_LON NEWDELHI_GRADE NEWDELHI_WIND NEWDELHI_PRES NEWDELHI_CI NEWDELHI_DP NEWDELHI_POCI REUNION_LAT REUNION_LON REUNION_TYPE REUNION_WIND REUNION_PRES REUNION_TNUM REUNION_CI REUNION_RMW REUNION_R34_NE REUNION_R34_SE REUNION_R34_SW REUNION_R34_NW REUNION_R50_NE REUNION_R50_SE REUNION_R50_SW REUNION_R50_NW REUNION_R64_NE REUNION_R64_SE REUNION_R64_SW REUNION_R64_NW BOM_LAT BOM_LON BOM_TYPE BOM_WIND BOM_PRES BOM_TNUM BOM_CI BOM_RMW BOM_R34_NE BOM_R34_SE BOM_R34_SW BOM_R34_NW BOM_R50_NE BOM_R50_SE BOM_R50_SW BOM_R50_NW BOM_R64_NE BOM_R64_SE BOM_R64_SW BOM_R64_NW BOM_ROCI BOM_POCI BOM_EYE BOM_POS_METHOD BOM_PRES_METHOD NADI_LAT NADI_LON NADI_CAT NADI_WIND NADI_PRES WELLINGTON_LAT WELLINGTON_LON WELLINGTON_WIND WELLINGTON_PRES DS824_LAT DS824_LON DS824_STAGE DS824_WIND DS824_PRES TD9636_LAT TD9636_LON TD9636_STAGE TD9636_WIND TD9636_PRES TD9635_LAT TD9635_LON TD9635_WIND TD9635_PRES TD9635_ROCI NEUMANN_LAT NEUMANN_LON NEUMANN_CLASS NEUMANN_WIND NEUMANN_PRES MLC_LAT MLC_LON MLC_CLASS MLC_WIND MLC_PRES USA_GUST BOM_GUST BOM_GUST_PER REUNION_GUST REUNION_GUST_PER USA_SEAHGT USA_SEARAD_NE USA_SEARAD_SE USA_SEARAD_SW USA_SEARAD_NW STORM_SPEED STORM_DIR
1965194N19087 1965 59 NI BB NOT_NAMED 1965-07-12 18:00:00 TS 19.0000 87.3000 main 146 131 O________O____ jtwc_io IO041965 19.0000 87.3000 -1 19.0000 87.3000 TC 3 294
1965194N19087 1965 59 NI BB NOT_NAMED 1965-07-12 21:00:00 TS 19.0625 87.1500 main 131 118 P________P____ IO041965 19.0625 87.1500 -1 19.0625 87.1500 TC 3 290
1965194N19087 1965 59 NI BB NOT_NAMED 1965-07-13 00:00:00 TS 19.1000 87.0000 main 118 113 O________O____ jtwc_io IO041965 19.1000 87.0000 -1 19.1000 87.0000 TC 25 3 278
1965194N19087 1965 59 NI BB NOT_NAMED 1965-07-13 03:00:00 TS 19.1000 86.8555 main 113 105 P________PO___ IO041965 19.1000 86.8500 -1 19.1000 86.8500 TC 25 19.1000 86.9000 1 3 271
1965194N19087 1965 59 NI BB NOT_NAMED 1965-07-13 06:00:00 TS 19.1051 86.7028 main 105 102 O________OP___ jtwc_io IO041965 19.1000 86.7000 -1 19.1000 86.7000 TC 25 19.1255 86.7142 1 3 280
1965194N19087 1965 59 NI BB NOT_NAMED 1965-07-13 09:00:00 TS 19.1502 86.5507 main 91 84 P________PP___ IO041965 19.1500 86.5575 -1 19.1500 86.5575 TC 25 19.1506 86.5326 1 3 286
1965194N19087 1965 59 NI BB NOT_NAMED 1965-07-13 12:00:00 TS 19.1918 86.3866 main 84 78 O________OP___ jtwc_io IO041965 19.2000 86.4000 -1 19.2000 86.4000 TC 25 19.1755 86.3598 1 3 279
1965194N19087 1965 59 NI BB NOT_NAMED 1965-07-13 15:00:00 TS 19.2000 86.2000 main 78 70 P________PO___ IO041965 19.2000 86.2000 -1 19.2000 86.2000 TC 25 19.2000 86.2000 1 3 273
1965194N19087 1965 59 NI BB NOT_NAMED 1965-07-13 18:00:00 TS 19.2081 86.0167 main 70 67 O________OP___ jtwc_io IO041965 19.2000 86.0000 -1 19.2000 86.0000 TC 25 19.2242 86.0502 1 3 279
1965194N19087 1965 59 NI BB NOT_NAMED 1965-07-13 21:00:00 TS 19.2494 85.8841 main 67 45 P________PP___ IO041965 19.2498 85.8875 -1 19.2498 85.8875 TC 25 19.2487 85.8773 1 3 285
1965194N19087 1965 59 NI BB NOT_NAMED 1965-07-14 00:00:00 TS 19.2913 85.6803 main 45 24 O________OP___ jtwc_io IO041965 19.3000 85.7000 -1 19.3000 85.7000 TC 25 19.2738 85.6408 1 5 275
1965194N19087 1965 59 NI BB NOT_NAMED 1965-07-14 03:00:00 TS 19.2999 85.3166 main 24 0 P________PO___ IO041965 19.2999 85.3249 -1 19.2999 85.3249 TC 25 19.3000 85.3000 1 8 271
1965194N19087 1965 59 NI BB NOT_NAMED 1965-07-14 06:00:00 TS 19.3085 84.8039 main 0 0 O________OP___ jtwc_io IO041965 19.3000 84.8000 -1 19.3000 84.8000 TC 25 19.3256 84.8118 1 11 273
1965194N19087 1965 59 NI BB NOT_NAMED 1965-07-14 09:00:00 TS 19.3503 84.1884 main 0 0 P________PP___ IO041965 19.3501 84.1726 -1 19.3501 84.1726 TC 25 19.3508 84.2199 1 12 274
1965194N19087 1965 59 NI BB NOT_NAMED 1965-07-14 12:00:00 TS 19.3918 83.5227 main 0 0 O________OP___ jtwc_io IO041965 19.4000 83.5000 -1 19.4000 83.5000 TC 25 19.3754 83.5680 1 12 272
1965194N19087 1965 59 NI BB NOT_NAMED 1965-07-14 15:00:00 TS 19.3998 82.8999 main 0 0 P________PO___ IO041965 19.3997 82.8998 -1 19.3997 82.8998 TC 25 19.4000 82.9000 1 11 269
1965194N19087 1965 59 NI BB NOT_NAMED 1965-07-14 18:00:00 TS 19.3678 82.3272 main 0 0 O________OP___ jtwc_io IO041965 19.4000 82.3000 -1 19.4000 82.3000 TC 25 19.3035 82.3816 1 11 268
1965194N19087 1965 59 NI BB NOT_NAMED 1965-07-14 21:00:00 TS 19.3603 81.7289 main 0 0 P________PP___ IO041965 19.4272 81.6723 -1 19.4272 81.6723 TC 25 19.2266 81.8420 1 12 273
1965194N19087 1965 59 NI BB NOT_NAMED 1965-07-15 00:00:00 TS 19.4206 81.0690 main 0 0 O________OP___ jtwc_io IO041965 19.5000 81.0000 -1 19.5000 81.0000 TC 25 19.2617 81.2070 1 13 277
1965194N19087 1965 59 NI BB NOT_NAMED 1965-07-15 03:00:00 TS 19.5241 80.3634 main 0 0 P________PO___ IO041965 19.5361 80.3450 -1 19.5361 80.3450 TC 25 19.5000 80.4000 1 16 287
1965194N19087 1965 59 NI BB NOT_NAMED 1965-07-15 06:00:00 TS 19.8816 79.4455 main 0 0 O________OP___ jtwc_io IO041965 19.8000 79.5000 -1 19.8000 79.5000 TC 25 20.0040 79.3638 1 23 298
1965194N19087 1965 59 NI BB NOT_NAMED 1965-07-15 09:00:00 TS 20.5835 78.2331 main 0 0 P________PP___ IO041965 20.4782 78.3104 -1 20.4782 78.3104 TC 25 20.7238 78.1301 1 29 303
1965194N19087 1965 59 NI AS NOT_NAMED 1965-07-15 12:00:00 TS 21.4908 76.8277 main 0 0 O________OP___ jtwc_io IO041965 21.4000 76.9000 -1 21.4000 76.9000 TC 25 21.5817 76.7553 1 33 305
1965194N19087 1965 59 NI AS NOT_NAMED 1965-07-15 15:00:00 NR 22.5000 75.3000 main 0 __________O___ IO041965 -1 TC 22.5000 75.3000 1 35 306

IBTrACS Databaseについて

本データベースは、米国NOAAが公開する1842年以降の世界の熱帯低気圧のベストトラックデータアーカイブInternational Best Track Archive for Climate Stewardship (IBTrACS)を、ウェブで閲覧しやすい形式に変換したものです。

最終更新日:2021-10-08